AirNav   Air Wisconsin Up To $57,000 Bonus
 
 1629 users online  

31NH Johnson's Heliport
Northwood, New Hampshire, USA

GOING TO NORTHWOOD?


FAA INFORMATION EFFECTIVE 02 JANUARY 2020

Location

FAA Identifier: 31NH
Lat/Long: 43-13-23.8200N 071-14-56.2500W
43-13.397000N 071-14.937500W
43.2232833,-71.2489583
(estimated)
Elevation: 575 ft. / 175 m (estimated)
From city: 5 miles NE of NORTHWOOD, NH
Time zone: UTC -5 (UTC -4 during Daylight Saving Time)
Zip code: 03261

Heliport Operations

Heliport use: Private use. Permission required prior to landing
Activation date: 02/2017
Control tower: no
ARTCC: BOSTON CENTER
FSS: BANGOR FLIGHT SERVICE STATION
Attendance: 
Wind indicator: yes
Segmented circle: no

Heliport Communications

WX ASOS at CON (11 nm W): 132.325 (603-224-6558)
WX ASOS at DAW (14 nm E): 135.275 (603-332-7814)
WX ASOS at MHT (19 nm SW): 119.55 (603-621-1766)

Nearby radio navigation aids

VOR radial/distance  VOR name  Freq  Var
CONr104/14.3CONCORD VOR/DME112.9015W
PSMr311/20.1PEASE VOR/DME116.5016W
MHTr029/21.9MANCHESTER VOR/DME114.4015W
LWMr002/29.8LAWRENCE VOR/DME112.5015W
ENEr263/30.3KENNEBUNK VOR/DME117.1017W

 
NDB name  Hdg/Dist  Freq  Var  ID
EPSOM071/10.921616WCO -.-. ---
ROLLINS287/18.426016WESG . ... --.

Heliport Services

Runway Information

Helipad H1

Dimensions: 150 x 120 ft. / 46 x 37 m
Surface: turf
Latitude: 43-13.397000N
Longitude: 071-14.937500W
Elevation: 575.0 ft.
Traffic pattern: leftleft

Heliport Ownership and Management from official FAA records

Ownership: Privately-owned
Owner: JEFF FENERTY
PO BOX 255
NORTHWOOD, NH 03261
Phone 603-942-7300
Manager: MATT MATTICE
PO BOX 255
NORTHWOOD, NH 03261
Phone 603-942-7300

Additional Remarks

FOR CD CTC BOSTON APCH AT 603-594-5551.

Instrument Procedures

There are no published instrument procedures at 31NH.

Some nearby airports with instrument procedures:

KCON - Concord Municipal Airport (11 nm W)
KDAW - Skyhaven Airport (14 nm E)
KMHT - Manchester Airport (19 nm SW)
KPSM - Portsmouth International Airport at Pease (21 nm SE)
3B4 - Littlebrook Air Park (21 nm E)
 
Loc | Ops | Rwys | IFR | FBO | Links
Com | Nav | Svcs | Stats | Notes
Aerial photo
No photo
 
Airport distance calculator
Flying to Johnson's Heliport? Find the distance to fly.

From to 31NH

Sunrise and sunset
Times for 22-Jan-2020
 Local
(UTC-5)
 Zulu
(UTC)
Morning civil twilight06:4011:40
Sunrise07:1112:11
Sunset16:4221:42
Evening civil twilight17:1322:13

Current date and time
Zulu (UTC)  22-Jan-2020 21:20:56
Local (UTC-5)  22-Jan-2020 16:20:56
 
METAR
KCON 
11nm W 
222051Z AUTO 00000KT 10SM CLR 02/M09 A3035 RMK AO2 SLP283 T00171094 56004
KDAW 
15nm E 
222051Z AUTO 00000KT 10SM CLR 01/M09 A3035 RMK AO2 SLP280 T00061094 55002
KMHT 
19nm SW 
222053Z 00000KT 10SM FEW250 03/M09 A3035 RMK AO2 SLP298 T00281094 55003
KPSM 
21nm SE 
222056Z 24004KT 10SM BKN250 01/M10 A3036 RMK AO2A SLP285 T00091103 55000
KLCI 
22nm N 
222056Z AUTO 21003KT 10SM CLR 01/M08 A3033 RMK AO2 SLP280 T00061083 56004 FZRANO
TAF
KCON 
11nm W 
221720Z 2218/2318 VRB03KT P6SM SCT250
KMHT 
19nm SW 
221720Z 2218/2318 VRB03KT P6SM SCT250
NOTAMs
Click for the latest NOTAMs
NOTAMs are issued by the DoD/FAA and will open in a separate window not controlled by AirNav.

 

 
 

Would you like to see your business listed on this page?

 If your business provides an interesting product or service to pilots, flight crews, aircraft, or users of the Johnson's Heliport, you should consider listing it here.  To start the listing process, click on the button below
 
Add a business
 

Other Pages about Johnson's Heliport

Update a link
 
Copyright © AirNav, LLC. All rights reserved. Privacy Policy  Contact